Terminal Aerodrome Forecast
Issued by NWS

Home | Current Version | Previous Version | Text Only | Print | Product List | Glossary On
Versions: 1 2 3 4 5 6 7 8 9 10 11 12 13 14 15 16 17 18 19 20 21 22
000
FTUS41 KOKX 291700 CCB
TAFSWF
TAF COR
KSWF 291747Z 2918/3024 VRB03KT P6SM BKN150
     FM300100 VRB03KT P6SM BKN050
     FM300300 VRB04KT 4SM -SN SCT020 OVC035
     FM300500 VRB05KT 2SM -SN OVC015
     FM301100 VRB05KT 4SM -SN OVC015
     FM301400 30008KT P6SM VCSH SCT015 BKN030
     FM301700 31012G20KT P6SM BKN035 BKN080
     FM302000 31017G26KT P6SM BKN040
      AMD NOT SKED=

USA.gov is the U.S. government's official web portal to all federal, state and local government web resources and services.